createdAt,value
2018-02-08T00:01:45.001Z,33.00
2018-02-08T00:04:13.081Z,34.37
2018-02-08T00:06:41.145Z,33.40
2018-02-08T00:09:09.253Z,36.37
2018-02-08T00:11:37.318Z,36.87
2018-02-08T00:14:05.400Z,38.40
2018-02-08T00:16:33.470Z,42.17
2018-02-08T00:19:01.905Z,37.88
2018-02-08T00:21:30.737Z,37.13
2018-02-08T00:23:58.817Z,29.03
2018-02-08T00:26:26.905Z,33.13
2018-02-08T00:28:54.981Z,33.50
2018-02-08T00:31:23.057Z,36.53
2018-02-08T00:33:51.137Z,33.30
2018-02-08T00:36:19.327Z,37.33
2018-02-08T00:38:47.438Z,32.50
2018-02-08T00:41:16.269Z,32.47
2018-02-08T00:43:44.469Z,34.87
2018-02-08T00:46:12.641Z,36.30
2018-02-08T00:48:40.709Z,33.42
2018-02-08T00:53:41.648Z,38.23
2018-02-08T00:56:09.753Z,34.92
2018-02-08T00:58:37.933Z,37.10
2018-02-08T01:01:06.017Z,36.43
2018-02-08T01:03:34.131Z,33.80
2018-02-08T01:06:02.182Z,37.37
2018-02-08T01:08:30.285Z,35.70
2018-02-08T01:10:59.120Z,34.50
2018-02-08T01:13:27.182Z,32.93
2018-02-08T01:15:55.290Z,31.87
2018-02-08T01:18:23.462Z,32.37
2018-02-08T01:20:51.524Z,33.87
2018-02-08T01:23:19.609Z,34.33
2018-02-08T01:25:47.701Z,33.00
2018-02-08T01:28:15.770Z,35.57
2018-02-08T01:30:43.836Z,33.20
2018-02-08T01:33:11.905Z,32.93
2018-02-08T01:35:39.970Z,35.90
2018-02-08T01:38:08.049Z,38.60
2018-02-08T01:40:36.115Z,32.47
2018-02-08T01:43:04.237Z,38.30
2018-02-08T01:45:32.309Z,34.00
2018-02-08T01:48:00.386Z,35.90
2018-02-08T01:50:28.458Z,40.53
2018-02-08T01:52:56.539Z,36.10
2018-02-08T01:55:24.612Z,31.40
2018-02-08T01:57:52.686Z,35.63
2018-02-08T02:00:22.213Z,32.88
2018-02-08T02:02:51.401Z,35.77
2018-02-08T02:05:19.493Z,36.87
2018-02-08T02:07:49.065Z,35.50
2018-02-08T02:10:17.165Z,39.00
2018-02-08T02:12:45.342Z,34.60
2018-02-08T02:15:13.421Z,38.20
2018-02-08T02:17:41.668Z,36.58
2018-02-08T02:20:09.736Z,36.07
2018-02-08T02:22:37.821Z,38.33
2018-02-08T02:25:05.890Z,39.93
2018-02-08T02:27:33.967Z,37.97
2018-02-08T02:30:02.071Z,38.40
2018-02-08T02:32:30.134Z,35.50
2018-02-08T02:34:58.239Z,37.10
2018-02-08T02:37:26.298Z,34.50
2018-02-08T02:39:54.374Z,38.80
2018-02-08T02:42:22.450Z,37.90
2018-02-08T02:44:50.538Z,38.03
2018-02-08T02:47:18.597Z,39.73
2018-02-08T02:49:46.690Z,37.57
2018-02-08T02:52:14.754Z,36.30
2018-02-08T02:54:42.853Z,40.70
2018-02-08T02:57:10.924Z,38.10
2018-02-08T02:59:39.013Z,38.55
2018-02-08T03:02:07.094Z,38.00
2018-02-08T03:04:35.169Z,39.63
2018-02-08T03:07:03.234Z,44.40
2018-02-08T03:09:31.401Z,36.37
2018-02-08T03:11:59.485Z,40.93
2018-02-08T03:14:27.570Z,37.17
2018-02-08T03:16:55.637Z,36.00
2018-02-08T03:19:23.720Z,38.17
2018-02-08T03:21:52.218Z,37.95
2018-02-08T03:24:20.377Z,35.00
2018-02-08T03:26:48.453Z,36.80
2018-02-08T03:29:16.537Z,37.40
2018-02-08T03:31:44.602Z,35.00
2018-02-08T03:34:12.685Z,33.73
2018-02-08T03:36:40.745Z,37.63
2018-02-08T03:39:08.941Z,32.13
2018-02-08T03:41:37.017Z,35.27
2018-02-08T03:44:05.117Z,37.23
2018-02-08T03:46:33.265Z,34.70
2018-02-08T03:49:01.346Z,34.57
2018-02-08T03:51:29.421Z,37.08
2018-02-08T03:53:57.593Z,36.85
2018-02-08T03:56:25.677Z,35.20
2018-02-08T03:58:53.743Z,35.60
2018-02-08T04:01:23.462Z,37.72
2018-02-08T04:03:52.648Z,33.67
2018-02-08T04:06:20.722Z,34.35
2018-02-08T04:08:48.789Z,34.80
2018-02-08T04:11:16.898Z,33.60
2018-02-08T04:13:45.011Z,34.73
2018-02-08T04:16:13.838Z,33.87
2018-02-08T04:18:41.913Z,35.93
2018-02-08T04:21:10.086Z,32.87
2018-02-08T04:23:38.238Z,34.60
2018-02-08T04:26:06.278Z,33.55
2018-02-08T04:28:34.494Z,34.97
2018-02-08T04:31:02.568Z,37.03
2018-02-08T04:33:30.631Z,38.23
2018-02-08T04:35:58.798Z,33.77
2018-02-08T04:38:44.686Z,37.40
2018-02-08T04:41:30.638Z,34.23
2018-02-08T04:44:23.497Z,35.17
2018-02-08T04:49:57.233Z,34.00
2018-02-08T04:52:26.078Z,35.50
2018-02-08T04:54:54.141Z,36.80
2018-02-08T04:57:23.373Z,41.58
2018-02-08T04:59:51.438Z,35.07
2018-02-08T05:02:19.513Z,33.37
2018-02-08T05:04:47.578Z,33.27
2018-02-08T05:07:15.651Z,31.60
2018-02-08T05:09:43.726Z,37.70
2018-02-08T05:12:11.802Z,34.23
2018-02-08T05:14:39.893Z,36.60
2018-02-08T05:17:07.970Z,36.10
2018-02-08T05:19:36.164Z,35.40
2018-02-08T05:22:04.364Z,33.40
2018-02-08T05:24:32.425Z,35.03
2018-02-08T05:27:00.501Z,37.97
2018-02-08T05:29:28.589Z,33.50
2018-02-08T05:31:56.661Z,39.60
2018-02-08T05:34:24.753Z,33.97
2018-02-08T05:36:54.718Z,36.72
2018-02-08T05:39:24.041Z,38.50
2018-02-08T05:41:52.122Z,32.87
2018-02-08T05:44:20.197Z,35.60
2018-02-08T05:46:48.284Z,35.83
2018-02-08T05:49:16.345Z,36.50
2018-02-08T05:51:44.426Z,38.00
2018-02-08T05:54:12.509Z,36.17
2018-02-08T05:56:40.595Z,39.07
2018-02-08T05:59:08.657Z,35.63
2018-02-08T06:01:36.738Z,39.07
2018-02-08T06:04:04.805Z,38.60
2018-02-08T06:06:32.985Z,40.07
2018-02-08T06:09:01.061Z,33.90
2018-02-08T06:11:29.137Z,34.58
2018-02-08T06:13:57.200Z,36.05
2018-02-08T06:16:26.013Z,37.40
2018-02-08T06:18:55.082Z,41.30
2018-02-08T06:21:24.285Z,39.97
2018-02-08T06:23:53.101Z,41.47
2018-02-08T06:26:21.173Z,38.47
2018-02-08T06:28:49.237Z,38.07
2018-02-08T06:31:17.312Z,38.30
2018-02-08T06:33:45.401Z,42.28
2018-02-08T06:36:13.893Z,40.53
2018-02-08T06:38:42.084Z,42.10
2018-02-08T06:41:10.261Z,38.80
2018-02-08T06:43:38.335Z,38.30
2018-02-08T06:46:06.405Z,40.67
2018-02-08T06:48:34.480Z,37.70
2018-02-08T06:51:02.546Z,39.13
2018-02-08T06:53:30.642Z,39.70
2018-02-08T06:55:58.726Z,35.83
2018-02-08T06:58:26.822Z,40.12
2018-02-08T07:00:55.649Z,39.70
2018-02-08T07:03:24.865Z,37.60
2018-02-08T07:05:52.929Z,36.85
2018-02-08T07:08:21.033Z,41.93
2018-02-08T07:10:49.097Z,43.00
2018-02-08T07:13:17.181Z,38.60
2018-02-08T07:15:45.245Z,41.80
2018-02-08T07:18:13.336Z,41.37
2018-02-08T07:20:41.393Z,38.77
2018-02-08T07:23:09.564Z,42.43
2018-02-08T07:25:37.612Z,37.50
2018-02-08T07:28:06.465Z,38.60
2018-02-08T07:30:34.528Z,45.33
2018-02-08T07:33:02.625Z,42.37
2018-02-08T07:35:30.793Z,40.63
2018-02-08T07:37:58.874Z,42.63
2018-02-08T07:40:26.945Z,41.57
2018-02-08T07:42:56.121Z,40.55
2018-02-08T07:45:25.328Z,37.90
2018-02-08T07:47:53.498Z,42.95
2018-02-08T07:50:21.577Z,39.10
2018-02-08T07:52:49.637Z,36.83
2018-02-08T07:55:17.713Z,41.17
2018-02-08T07:57:46.558Z,40.17
2018-02-08T08:00:14.646Z,40.97
2018-02-08T08:02:42.723Z,42.40
2018-02-08T08:05:10.799Z,39.90
2018-02-08T08:07:39.625Z,40.27
2018-02-08T08:10:08.476Z,39.70
2018-02-08T08:12:36.537Z,42.87
2018-02-08T08:15:04.616Z,39.40
2018-02-08T08:17:32.681Z,43.00
2018-02-08T08:20:00.788Z,44.92
2018-02-08T08:22:28.849Z,38.40
2018-02-08T08:24:56.930Z,39.73
2018-02-08T08:27:27.462Z,36.28
2018-02-08T08:29:56.749Z,37.65
2018-02-08T08:32:25.934Z,38.83
2018-02-08T08:34:54.025Z,40.20
2018-02-08T08:37:22.102Z,34.83
2018-02-08T08:39:50.177Z,37.70
2018-02-08T08:42:18.273Z,35.10
2018-02-08T08:44:46.445Z,36.03
2018-02-08T08:47:14.509Z,35.40
2018-02-08T08:49:42.574Z,35.57
2018-02-08T08:52:10.634Z,37.47
2018-02-08T08:54:38.753Z,34.10
2018-02-08T08:57:06.830Z,35.47
2018-02-08T08:59:35.008Z,35.80
2018-02-08T09:02:03.067Z,37.70
2018-02-08T09:04:31.132Z,35.40
2018-02-08T09:06:59.233Z,34.23
2018-02-08T09:09:27.314Z,37.57
2018-02-08T09:11:56.510Z,37.97
2018-02-08T09:14:24.590Z,39.03
2018-02-08T09:16:52.662Z,35.80
2018-02-08T09:19:20.737Z,37.27
2018-02-08T09:21:49.461Z,38.60
2018-02-08T09:24:17.533Z,36.80
2018-02-08T09:26:45.608Z,37.45
2018-02-08T09:29:13.766Z,42.03
2018-02-08T09:31:41.866Z,37.93
2018-02-08T09:34:10.842Z,39.60
2018-02-08T09:36:38.905Z,37.83
2018-02-08T09:39:06.954Z,35.47
2018-02-08T09:41:35.070Z,39.90
2018-02-08T09:44:03.149Z,36.37
2018-02-08T09:46:31.247Z,37.97
2018-02-08T09:48:59.273Z,36.17
2018-02-08T09:51:27.442Z,34.33
2018-02-08T09:53:56.365Z,37.37
2018-02-08T09:56:24.445Z,40.50
2018-02-08T09:58:52.530Z,37.63
2018-02-08T10:01:20.705Z,38.43
2018-02-08T10:03:48.761Z,38.57
2018-02-08T10:06:16.859Z,37.70
2018-02-08T10:08:44.913Z,40.53
2018-02-08T10:11:13.415Z,38.70
2018-02-08T10:13:41.466Z,39.03
2018-02-08T10:16:09.581Z,35.57
2018-02-08T10:18:37.633Z,34.93
2018-02-08T10:21:05.726Z,36.70
2018-02-08T10:23:33.776Z,35.13
2018-02-08T10:26:01.841Z,36.87
2018-02-08T10:28:29.893Z,36.43
2018-02-08T10:30:58.745Z,36.77
2018-02-08T10:33:27.553Z,34.72
2018-02-08T10:35:55.997Z,33.90
2018-02-08T10:38:24.058Z,36.23
2018-02-08T10:40:52.178Z,35.10
2018-02-08T10:43:20.226Z,39.13
2018-02-08T10:45:48.321Z,35.30
2018-02-08T10:48:16.381Z,36.03
2018-02-08T10:50:44.474Z,39.30
2018-02-08T10:53:12.543Z,37.60
2018-02-08T10:55:40.605Z,37.77
2018-02-08T10:58:08.656Z,37.47
2018-02-08T11:00:37.489Z,36.55
2018-02-08T11:03:05.541Z,35.37
2018-02-08T11:05:33.613Z,35.97
2018-02-08T11:08:01.671Z,35.93
2018-02-08T11:10:30.639Z,38.50
2018-02-08T11:12:58.848Z,35.83
2018-02-08T11:15:28.109Z,38.60
2018-02-08T11:17:56.289Z,36.40
2018-02-08T11:20:24.374Z,37.33
2018-02-08T11:22:52.645Z,34.50
2018-02-08T11:25:20.717Z,35.70
2018-02-08T11:27:48.777Z,37.77
2018-02-08T11:30:16.837Z,35.57
2018-02-08T11:32:44.949Z,35.83
2018-02-08T11:35:13.025Z,32.37
2018-02-08T11:37:41.093Z,34.93
2018-02-08T11:40:09.153Z,38.60
2018-02-08T11:42:37.225Z,38.67
2018-02-08T11:45:05.337Z,38.40
2018-02-08T11:47:33.403Z,36.35
2018-02-08T11:50:01.448Z,35.40
2018-02-08T11:52:29.530Z,34.75
2018-02-08T11:54:58.653Z,31.92
2018-02-08T11:57:27.144Z,34.70
2018-02-08T11:59:55.192Z,37.97
2018-02-08T12:02:23.905Z,35.50
2018-02-08T12:04:51.967Z,38.70
2018-02-08T12:07:20.029Z,39.23
2018-02-08T12:09:48.145Z,35.60
2018-02-08T12:12:16.213Z,37.30
2018-02-08T12:14:44.269Z,35.80
2018-02-08T12:17:12.373Z,37.90
2018-02-08T12:19:40.433Z,36.63
2018-02-08T12:22:08.490Z,39.57
2018-02-08T12:24:36.549Z,33.80
2018-02-08T12:27:05.397Z,40.07
2018-02-08T12:29:33.485Z,38.77
2018-02-08T12:32:01.531Z,35.70
2018-02-08T12:34:29.593Z,35.87
2018-02-08T12:36:57.655Z,35.97
2018-02-08T12:39:25.717Z,38.67
2018-02-08T12:41:54.534Z,36.80
2018-02-08T12:44:22.606Z,38.10
2018-02-08T12:46:50.653Z,37.50
2018-02-08T12:49:19.520Z,39.43
2018-02-08T12:51:47.581Z,39.00
2018-02-08T12:54:15.646Z,38.10
2018-02-08T12:56:43.704Z,37.60
2018-02-08T12:59:11.809Z,37.07
2018-02-08T13:01:40.601Z,37.30
2018-02-08T13:04:08.692Z,39.67
2018-02-08T13:06:36.744Z,38.00
2018-02-08T13:09:04.842Z,36.73
2018-02-08T13:11:32.982Z,37.23
2018-02-08T13:14:01.102Z,39.40
2018-02-08T13:16:29.793Z,37.33
2018-02-08T13:18:57.911Z,36.40
2018-02-08T13:21:25.937Z,37.43
2018-02-08T13:23:54.017Z,38.40
2018-02-08T13:26:22.089Z,39.57
2018-02-08T13:28:50.268Z,38.70
2018-02-08T13:31:21.706Z,36.47
2018-02-08T13:33:49.801Z,39.40
2018-02-08T13:36:17.862Z,39.50
2018-02-08T13:38:45.946Z,40.83
2018-02-08T13:41:13.997Z,38.27
2018-02-08T13:43:42.069Z,33.33
2018-02-08T13:46:10.125Z,36.93
2018-02-08T13:48:38.599Z,39.07
2018-02-08T13:51:07.745Z,38.80
2018-02-08T13:53:41.333Z,36.73
2018-02-08T13:56:11.314Z,38.20
2018-02-08T14:01:52.922Z,34.50
2018-02-08T14:04:21.744Z,35.90
2018-02-08T14:06:49.807Z,36.60
2018-02-08T14:09:17.873Z,34.10
2018-02-08T14:11:46.689Z,34.17
2018-02-08T14:14:14.756Z,37.17
2018-02-08T14:16:42.813Z,38.90
2018-02-08T14:19:12.173Z,38.13
2018-02-08T14:21:40.241Z,37.80
2018-02-08T14:24:08.900Z,37.57
2018-02-08T14:26:37.017Z,39.70
2018-02-08T14:29:05.069Z,35.13
2018-02-08T14:31:33.146Z,33.43
2018-02-08T14:34:01.238Z,36.27
2018-02-08T14:36:29.319Z,34.50
2018-02-08T14:38:57.463Z,34.80
2018-02-08T14:41:25.577Z,34.27
2018-02-08T14:43:53.649Z,36.40
2018-02-08T14:46:21.713Z,36.20
2018-02-08T14:48:49.765Z,34.57
2018-02-08T14:51:17.888Z,33.25
2018-02-08T14:53:45.949Z,31.80
2018-02-08T14:56:14.014Z,33.20
2018-02-08T14:58:42.077Z,33.23
2018-02-08T15:01:10.185Z,32.40
2018-02-08T15:03:38.242Z,33.33
2018-02-08T15:06:06.305Z,33.10
2018-02-08T15:08:35.405Z,33.03
2018-02-08T15:11:03.505Z,32.57
2018-02-08T15:13:31.697Z,34.63
2018-02-08T15:15:59.760Z,35.13
2018-02-08T15:18:27.839Z,33.17
2018-02-08T15:20:55.910Z,36.87
2018-02-08T15:23:24.965Z,35.80
2018-02-08T15:25:53.809Z,37.47
2018-02-08T15:28:21.864Z,40.00
2018-02-08T15:30:49.976Z,35.07
2018-02-08T15:33:18.026Z,33.23
2018-02-08T15:35:46.089Z,34.10
2018-02-08T15:38:14.160Z,35.00
2018-02-08T15:40:42.273Z,36.10
2018-02-08T15:43:10.453Z,34.83
2018-02-08T15:45:38.517Z,34.57
2018-02-08T15:48:06.577Z,34.90
2018-02-08T15:50:34.633Z,36.57
2018-02-08T15:53:02.753Z,34.90
2018-02-08T15:55:31.937Z,37.37
2018-02-08T15:58:00.639Z,36.63
2018-02-08T16:00:28.693Z,40.80
2018-02-08T16:02:56.765Z,38.63
2018-02-08T16:05:24.873Z,39.13
2018-02-08T16:07:52.953Z,37.87
2018-02-08T16:10:21.013Z,38.27
2018-02-08T16:12:49.077Z,39.00
2018-02-08T16:15:17.185Z,37.80
2018-02-08T16:17:45.353Z,37.97
2018-02-08T16:20:13.434Z,37.37
2018-02-08T16:22:41.525Z,40.22
2018-02-08T16:25:09.581Z,36.30
2018-02-08T16:27:37.641Z,40.17
2018-02-08T16:30:05.785Z,38.60
2018-02-08T16:32:33.803Z,38.93
2018-02-08T16:35:03.738Z,37.58
2018-02-08T16:37:32.941Z,40.00
2018-02-08T16:40:01.013Z,36.90
2018-02-08T16:42:29.185Z,37.87
2018-02-08T16:44:57.262Z,41.83
2018-02-08T16:47:25.341Z,44.27
2018-02-08T16:49:53.424Z,40.07
2018-02-08T16:52:21.598Z,37.60
2018-02-08T16:54:49.670Z,36.50
2018-02-08T16:57:17.733Z,36.47
2018-02-08T16:59:46.512Z,39.47
2018-02-08T17:02:14.577Z,37.87
2018-02-08T17:04:42.643Z,38.30
2018-02-08T17:07:11.469Z,37.63
2018-02-08T17:09:39.529Z,36.13
2018-02-08T17:12:07.640Z,40.42
2018-02-08T17:14:35.701Z,39.37
2018-02-08T17:17:03.781Z,37.70
2018-02-08T17:19:31.873Z,36.10
2018-02-08T17:21:59.984Z,39.77
2018-02-08T17:24:28.217Z,38.97
2018-02-08T17:26:57.909Z,37.77
2018-02-08T17:29:26.046Z,34.90
2018-02-08T17:31:54.062Z,38.43
2018-02-08T17:34:22.161Z,37.27
2018-02-08T17:36:50.965Z,38.57
2018-02-08T17:39:19.040Z,37.87
2018-02-08T17:41:47.084Z,39.50
2018-02-08T17:44:15.190Z,36.60
2018-02-08T17:46:43.269Z,38.90
2018-02-08T17:49:11.338Z,37.37
2018-02-08T17:51:39.401Z,39.80
2018-02-08T17:54:07.466Z,43.27
2018-02-08T17:56:35.522Z,35.43
2018-02-08T17:59:03.887Z,37.88
2018-02-08T18:01:31.954Z,38.93
2018-02-08T18:04:00.037Z,36.67
2018-02-08T18:06:28.194Z,37.90
2018-02-08T18:08:56.264Z,37.23
2018-02-08T18:11:24.437Z,36.67
2018-02-08T18:13:52.518Z,34.67
2018-02-08T18:16:20.701Z,36.17
2018-02-08T18:18:48.761Z,33.67
2018-02-08T18:21:16.849Z,36.43
2018-02-08T18:23:44.930Z,35.97
2018-02-08T18:26:13.001Z,38.70
2018-02-08T18:28:41.157Z,37.37
2018-02-08T18:31:09.219Z,37.67
2018-02-08T18:33:37.329Z,36.07
2018-02-08T18:36:05.390Z,34.80
2018-02-08T18:38:34.467Z,37.90
2018-02-08T18:41:02.525Z,37.90
2018-02-08T18:43:31.358Z,35.17
2018-02-08T18:45:59.413Z,34.53
2018-02-08T18:48:27.480Z,34.50
2018-02-08T18:50:56.321Z,32.67
2018-02-08T18:53:24.395Z,33.90
2018-02-08T18:55:52.461Z,34.27
2018-02-08T18:58:20.564Z,34.17
2018-02-08T19:00:48.577Z,32.00
2018-02-08T19:03:16.697Z,34.83
2018-02-08T19:05:44.761Z,36.03
2018-02-08T19:08:12.822Z,31.37
2018-02-08T19:10:40.897Z,29.50
2018-02-08T19:13:09.007Z,33.10
2018-02-08T19:15:37.065Z,31.93
2018-02-08T19:18:05.130Z,34.10
2018-02-08T19:20:33.275Z,32.10
2018-02-08T19:23:01.415Z,31.67
2018-02-08T19:25:29.487Z,30.43
2018-02-08T19:27:57.558Z,34.13
2018-02-08T19:30:25.629Z,32.43
2018-02-08T19:32:53.697Z,35.27
2018-02-08T19:35:21.767Z,37.80
2018-02-08T19:37:49.882Z,37.93
2018-02-08T19:40:17.952Z,36.33
2018-02-08T19:42:46.030Z,36.83
2018-02-08T19:45:14.085Z,39.87
2018-02-08T19:47:42.173Z,37.10
2018-02-08T19:50:10.257Z,37.38
2018-02-08T19:52:38.974Z,38.38
2018-02-08T19:55:07.038Z,36.60
2018-02-08T19:57:35.501Z,40.40
2018-02-08T20:00:03.585Z,42.78
2018-02-08T20:02:31.640Z,41.17
2018-02-08T20:04:59.750Z,40.57
2018-02-08T20:07:27.775Z,40.63
2018-02-08T20:09:55.886Z,40.67
2018-02-08T20:12:23.954Z,39.57
2018-02-08T20:14:52.009Z,40.20
2018-02-08T20:17:20.110Z,39.70
2018-02-08T20:19:48.193Z,39.67
2018-02-08T20:22:16.274Z,44.00
2018-02-08T20:24:44.350Z,43.00
2018-02-08T20:27:12.419Z,43.73
2018-02-08T20:29:40.473Z,45.77
2018-02-08T20:32:09.226Z,43.13
2018-02-08T20:34:38.458Z,40.97
2018-02-08T20:37:06.538Z,44.10
2018-02-08T20:39:34.641Z,44.70
2018-02-08T20:42:02.733Z,46.03
2018-02-08T20:44:30.785Z,41.63
2018-02-08T20:46:58.857Z,41.97
2018-02-08T20:49:26.911Z,44.60
2018-02-08T20:51:54.975Z,40.97
2018-02-08T20:54:23.822Z,41.30
2018-02-08T20:56:51.885Z,40.47
2018-02-08T20:59:19.941Z,41.37
2018-02-08T21:01:48.018Z,41.55
2018-02-08T21:04:16.119Z,42.10
2018-02-08T21:06:44.173Z,44.20
2018-02-08T21:09:12.298Z,42.07
2018-02-08T21:11:40.345Z,42.23
2018-02-08T21:14:09.134Z,43.67
2018-02-08T21:16:38.141Z,39.15
2018-02-08T21:19:07.333Z,42.50
2018-02-08T21:21:35.392Z,41.63
2018-02-08T21:24:04.385Z,42.30
2018-02-08T21:26:32.441Z,43.75
2018-02-08T21:29:01.290Z,41.85
2018-02-08T21:31:29.349Z,45.47
2018-02-08T21:33:57.437Z,46.30
2018-02-08T21:36:25.517Z,44.10
2018-02-08T21:38:53.594Z,45.07
2018-02-08T21:41:21.665Z,41.37
2018-02-08T21:43:49.733Z,43.08
2018-02-08T21:46:17.789Z,44.77
2018-02-08T21:48:45.867Z,38.73
2018-02-08T21:51:13.923Z,41.83
2018-02-08T21:53:42.776Z,43.97
2018-02-08T21:56:10.829Z,44.65
2018-02-08T21:58:38.913Z,40.70
2018-02-08T22:01:08.117Z,42.67
2018-02-08T22:03:36.206Z,41.53
2018-02-08T22:06:04.270Z,42.17
2018-02-08T22:08:32.341Z,41.37
2018-02-08T22:11:01.113Z,45.00
2018-02-08T22:13:29.217Z,42.83
2018-02-08T22:15:57.293Z,42.57
2018-02-08T22:18:25.357Z,41.37
2018-02-08T22:20:53.430Z,41.50
2018-02-08T22:23:21.525Z,41.10
2018-02-08T22:25:49.605Z,40.73
2018-02-08T22:28:17.677Z,41.97
2018-02-08T22:30:45.738Z,42.57
2018-02-08T22:33:13.811Z,41.72
2018-02-08T22:35:41.873Z,40.73
2018-02-08T22:38:09.929Z,44.07
2018-02-08T22:40:39.376Z,43.90
2018-02-08T22:43:09.318Z,41.77
2018-02-08T22:45:38.509Z,39.03
2018-02-08T22:48:06.580Z,45.33
2018-02-08T22:50:34.649Z,39.70
2018-02-08T22:53:02.737Z,42.53
2018-02-08T22:55:30.806Z,43.60
2018-02-08T22:57:58.893Z,43.73
2018-02-08T23:00:26.956Z,41.83
2018-02-08T23:02:55.041Z,43.87
2018-02-08T23:05:23.133Z,43.20
2018-02-08T23:07:51.187Z,41.43
2018-02-08T23:10:19.269Z,42.30
2018-02-08T23:12:47.333Z,40.23
2018-02-08T23:15:15.393Z,41.80
2018-02-08T23:17:43.501Z,41.00
2018-02-08T23:20:11.593Z,44.03
2018-02-08T23:22:39.709Z,41.27
2018-02-08T23:25:07.768Z,43.17
2018-02-08T23:27:36.598Z,41.13
2018-02-08T23:30:04.653Z,43.23
2018-02-08T23:32:33.481Z,45.47
2018-02-08T23:35:01.542Z,41.37
2018-02-08T23:37:29.601Z,44.30
2018-02-08T23:39:57.724Z,40.07
2018-02-08T23:42:25.781Z,41.47
2018-02-08T23:44:54.198Z,42.80
2018-02-08T23:47:22.362Z,42.60
2018-02-08T23:49:50.416Z,45.33
2018-02-08T23:52:18.509Z,43.93
2018-02-08T23:54:46.569Z,42.17
2018-02-08T23:57:14.665Z,39.70
2018-02-08T23:59:42.737Z,42.00
